createdAt,value
2019-03-23T00:00:02.807Z,79.05
2019-03-23T00:05:05.444Z,78.80
2019-03-23T00:10:07.585Z,79.00
2019-03-23T00:15:09.717Z,78.45
2019-03-23T00:20:11.860Z,77.85
2019-03-23T00:25:14.046Z,77.42
2019-03-23T00:30:16.195Z,77.13
2019-03-23T00:35:18.773Z,76.81
2019-03-23T00:40:20.858Z,76.55
2019-03-23T00:45:23.003Z,76.35
2019-03-23T00:50:25.501Z,76.16
2019-03-23T00:55:28.015Z,75.99
2019-03-23T01:00:30.172Z,75.88
2019-03-23T01:05:32.323Z,75.66
2019-03-23T01:10:34.479Z,75.64
2019-03-23T01:15:36.577Z,75.62
2019-03-23T01:20:49.141Z,75.64
2019-03-23T01:25:42.722Z,75.73
2019-03-23T01:30:44.894Z,75.61
2019-03-23T01:35:46.993Z,75.61
2019-03-23T01:40:49.142Z,75.61
2019-03-23T01:45:51.279Z,75.71
2019-03-23T01:50:53.487Z,75.79
2019-03-23T01:55:56.052Z,75.77
2019-03-23T02:00:58.655Z,75.74
2019-03-23T02:06:00.802Z,75.71
2019-03-23T02:11:02.957Z,75.97
2019-03-23T02:16:05.062Z,75.80
2019-03-23T02:21:07.208Z,75.74
2019-03-23T02:26:09.424Z,75.69
2019-03-23T02:31:12.521Z,75.91
2019-03-23T02:36:14.669Z,75.72
2019-03-23T02:41:17.447Z,75.93
2019-03-23T02:46:19.639Z,75.94
2019-03-23T02:51:21.863Z,75.90
2019-03-23T02:56:23.978Z,76.43
2019-03-23T03:01:26.132Z,77.00
2019-03-23T03:06:28.302Z,77.52
2019-03-23T03:11:30.436Z,77.83
2019-03-23T03:16:32.586Z,78.05
2019-03-23T03:21:34.804Z,78.28
2019-03-23T03:26:37.217Z,78.52
2019-03-23T03:31:39.379Z,78.64
2019-03-23T03:36:41.957Z,78.72
2019-03-23T03:41:44.170Z,78.80
2019-03-23T03:46:46.333Z,79.04
2019-03-23T03:51:48.474Z,79.21
2019-03-23T03:56:50.920Z,79.00
2019-03-23T04:01:53.141Z,78.84
2019-03-23T04:06:55.295Z,78.31
2019-03-23T04:11:57.539Z,78.01
2019-03-23T04:16:59.718Z,77.92
2019-03-23T04:22:01.987Z,78.04
2019-03-23T04:27:04.089Z,77.63
2019-03-23T04:32:06.681Z,78.25
2019-03-23T04:37:08.795Z,77.51
2019-03-23T04:42:10.906Z,77.54
2019-03-23T04:47:13.098Z,78.06
2019-03-23T04:52:15.266Z,77.71
2019-03-23T04:57:17.420Z,77.45
2019-03-23T05:02:19.591Z,77.17
2019-03-23T05:07:21.745Z,78.37
2019-03-23T05:12:23.911Z,78.07
2019-03-23T05:17:26.069Z,77.85
2019-03-23T05:22:28.384Z,78.18
2019-03-23T05:27:30.549Z,78.68
2019-03-23T05:32:32.659Z,78.16
2019-03-23T05:37:34.754Z,78.72
2019-03-23T05:42:36.959Z,78.25
2019-03-23T05:47:39.063Z,77.75
2019-03-23T05:52:41.261Z,77.57
2019-03-23T05:57:43.369Z,77.32
2019-03-23T06:02:45.514Z,78.83
2019-03-23T06:07:47.662Z,78.46
2019-03-23T06:12:50.939Z,77.95
2019-03-23T06:17:53.227Z,77.65
2019-03-23T06:22:56.153Z,77.15
2019-03-23T06:27:58.619Z,76.89
2019-03-23T06:33:01.119Z,76.65
2019-03-23T06:38:03.294Z,76.39
2019-03-23T06:43:05.473Z,76.12
2019-03-23T06:48:07.612Z,76.10
2019-03-23T06:53:10.254Z,76.10
2019-03-23T06:58:12.490Z,76.00
2019-03-23T07:03:16.777Z,75.76
2019-03-23T07:08:31.302Z,75.93
2019-03-23T07:13:25.775Z,75.77
2019-03-23T07:18:27.958Z,75.36
2019-03-23T07:23:32.117Z,75.26
2019-03-23T07:28:34.226Z,75.25
2019-03-23T07:33:36.416Z,75.29
2019-03-23T07:38:38.915Z,74.99
2019-03-23T07:43:41.369Z,74.95
2019-03-23T07:48:43.536Z,74.87
2019-03-23T07:53:45.785Z,74.82
2019-03-23T07:58:47.949Z,74.81
2019-03-23T08:03:50.482Z,74.66
2019-03-23T08:08:52.939Z,74.43
2019-03-23T08:13:55.115Z,73.87
2019-03-23T08:18:57.731Z,73.90
2019-03-23T08:24:00.250Z,73.50
2019-03-23T08:29:03.319Z,73.40
2019-03-23T08:34:05.683Z,73.96
2019-03-23T08:39:07.866Z,73.80
2019-03-23T08:44:10.441Z,73.15
2019-03-23T08:49:12.584Z,73.11
2019-03-23T08:54:14.733Z,73.01
2019-03-23T08:59:20.191Z,72.82
2019-03-23T09:04:22.985Z,73.03
2019-03-23T09:09:25.231Z,73.20
2019-03-23T09:14:27.911Z,73.14
2019-03-23T09:19:30.146Z,73.21
2019-03-23T09:24:32.449Z,73.17
2019-03-23T09:29:34.734Z,73.13
2019-03-23T09:34:37.501Z,73.11
2019-03-23T09:39:39.969Z,72.87
2019-03-23T09:44:42.702Z,72.27
2019-03-23T09:49:45.003Z,71.40
2019-03-23T09:54:47.206Z,70.55
2019-03-23T09:59:50.653Z,69.65
2019-03-23T10:04:52.802Z,68.98
2019-03-23T10:09:54.974Z,68.25
2019-03-23T10:14:57.216Z,69.12
2019-03-23T10:19:59.657Z,68.74
2019-03-23T10:25:01.955Z,68.37
2019-03-23T10:30:04.451Z,68.58
2019-03-23T10:35:06.788Z,68.12
2019-03-23T10:40:09.005Z,67.40
2019-03-23T10:45:11.270Z,67.62
2019-03-23T10:50:13.588Z,66.97
2019-03-23T10:55:15.780Z,66.27
2019-03-23T11:00:18.092Z,66.02
2019-03-23T11:05:20.440Z,65.55
2019-03-23T11:10:22.547Z,65.12
2019-03-23T11:15:25.475Z,63.90
2019-03-23T11:20:27.556Z,64.55
2019-03-23T11:25:29.781Z,66.29
2019-03-23T11:30:32.882Z,64.93
2019-03-23T11:35:35.125Z,65.29
2019-03-23T11:40:37.306Z,66.24
2019-03-23T11:45:39.981Z,66.70
2019-03-23T11:50:42.238Z,64.75
2019-03-23T11:55:44.483Z,65.25
2019-03-23T12:00:46.633Z,66.39
2019-03-23T12:05:48.976Z,65.85
2019-03-23T12:10:51.268Z,65.81
2019-03-23T12:15:53.729Z,67.61
2019-03-23T12:20:55.961Z,68.04
2019-03-23T12:25:58.148Z,66.95
2019-03-23T12:31:00.312Z,65.93
2019-03-23T12:36:02.543Z,66.69
2019-03-23T12:41:14.213Z,64.56
2019-03-23T12:46:09.583Z,65.01
2019-03-23T12:51:11.878Z,64.91
2019-03-23T12:56:14.188Z,65.73
2019-03-23T13:01:16.719Z,66.92
2019-03-23T13:06:18.935Z,67.67
2019-03-23T13:11:24.668Z,69.65
2019-03-23T13:16:26.231Z,70.80
2019-03-23T13:21:28.885Z,74.05
2019-03-23T13:26:31.129Z,76.27
2019-03-23T13:31:35.398Z,77.41
2019-03-23T13:36:37.445Z,77.34
2019-03-23T13:41:49.442Z,77.51
2019-03-23T13:46:51.735Z,78.21
2019-03-23T13:51:54.074Z,78.04
2019-03-23T13:56:56.353Z,76.20
2019-03-23T14:01:58.679Z,74.53
2019-03-23T14:07:01.021Z,71.34
2019-03-23T14:12:03.771Z,70.26
2019-03-23T14:17:06.560Z,71.44
2019-03-23T14:22:09.044Z,70.66
2019-03-23T14:27:11.262Z,69.33
2019-03-23T14:32:13.459Z,68.63
2019-03-23T14:37:15.967Z,68.17
2019-03-23T14:42:18.201Z,68.67
2019-03-23T14:47:21.903Z,67.81
2019-03-23T14:52:24.243Z,67.33
2019-03-23T14:57:26.929Z,65.00
2019-03-23T15:02:29.330Z,62.79
2019-03-23T15:07:31.584Z,62.37
2019-03-23T15:12:34.324Z,62.65
2019-03-23T15:17:37.627Z,61.51
2019-03-23T15:22:40.142Z,60.95
2019-03-23T15:27:43.210Z,58.00
2019-03-23T15:32:45.533Z,58.86
2019-03-23T15:37:51.061Z,58.24
2019-03-23T15:42:53.194Z,58.74
2019-03-23T15:47:56.770Z,58.84
2019-03-23T15:52:59.081Z,59.08
2019-03-23T15:58:01.866Z,59.23
2019-03-23T16:03:04.456Z,58.47
2019-03-23T16:08:06.784Z,59.99
2019-03-23T16:13:09.721Z,59.04
2019-03-23T16:18:12.001Z,58.63
2019-03-23T16:23:14.734Z,58.51
2019-03-23T16:28:17.185Z,56.98
2019-03-23T16:33:19.538Z,58.23
2019-03-23T16:38:21.974Z,56.01
2019-03-23T16:43:25.330Z,58.65
2019-03-23T16:48:29.582Z,57.04
2019-03-23T16:53:31.819Z,59.37
2019-03-23T16:58:34.200Z,57.38
2019-03-23T17:03:36.499Z,57.49
2019-03-23T17:08:38.794Z,57.25
2019-03-23T17:13:41.104Z,58.74
2019-03-23T17:18:44.895Z,58.92
2019-03-23T17:23:47.283Z,59.75
2019-03-23T17:28:52.168Z,60.40
2019-03-23T17:33:54.751Z,60.30
2019-03-23T17:38:59.351Z,61.06
2019-03-23T17:44:02.022Z,61.53
2019-03-23T17:49:04.313Z,62.19
2019-03-23T17:54:07.232Z,62.65
2019-03-23T17:59:09.794Z,63.10
2019-03-23T18:04:12.046Z,62.89
2019-03-23T18:09:16.656Z,62.94
2019-03-23T18:14:26.257Z,63.55
2019-03-23T18:19:28.646Z,62.73
2019-03-23T18:24:32.545Z,63.37
2019-03-23T18:29:35.490Z,63.69
2019-03-23T18:34:37.949Z,63.69
2019-03-23T18:39:41.037Z,63.87
2019-03-23T18:44:44.332Z,64.48
2019-03-23T18:49:49.523Z,64.87
2019-03-23T18:54:52.190Z,65.24
2019-03-23T18:59:54.769Z,65.70
2019-03-23T19:04:57.613Z,66.34
2019-03-23T19:10:00.693Z,66.75
2019-03-23T19:15:04.918Z,67.38
2019-03-23T19:20:08.113Z,67.83
2019-03-23T19:25:16.097Z,68.10
2019-03-23T19:30:15.782Z,68.30
2019-03-23T19:35:21.242Z,68.19
2019-03-23T19:40:25.456Z,68.16
2019-03-23T19:45:27.998Z,68.50
2019-03-23T19:50:30.347Z,69.00
2019-03-23T19:55:33.067Z,69.35
2019-03-23T20:00:36.245Z,69.55
2019-03-23T20:05:38.968Z,70.26
2019-03-23T20:10:41.656Z,70.93
2019-03-23T20:15:44.045Z,71.99
2019-03-23T20:20:47.668Z,72.65
2019-03-23T20:25:52.874Z,73.24
2019-03-23T20:30:57.270Z,73.09
2019-03-23T20:36:01.848Z,74.01
2019-03-23T20:41:07.223Z,74.87
2019-03-23T20:46:09.405Z,75.32
2019-03-23T20:51:12.465Z,75.31
2019-03-23T20:56:14.701Z,75.44
2019-03-23T21:01:24.483Z,76.24
2019-03-23T21:06:28.323Z,76.08
2019-03-23T21:11:30.786Z,75.84
2019-03-23T21:16:33.045Z,76.15
2019-03-23T21:21:38.086Z,75.77
2019-03-23T21:26:46.457Z,76.41
2019-03-23T21:31:49.472Z,76.83
2019-03-23T21:36:51.935Z,77.12
2019-03-23T21:41:54.370Z,76.72
2019-03-23T21:47:02.773Z,77.39
2019-03-23T21:52:05.127Z,77.80
2019-03-23T21:57:07.532Z,77.90
2019-03-23T22:02:14.364Z,77.95
2019-03-23T22:07:19.879Z,79.30
2019-03-23T22:12:22.288Z,79.14
2019-03-23T22:17:24.923Z,80.14
2019-03-23T22:22:27.557Z,79.94
2019-03-23T22:27:30.226Z,80.10
2019-03-23T22:32:33.198Z,79.94
2019-03-23T22:37:37.042Z,79.91
2019-03-23T22:42:39.423Z,80.02
2019-03-23T22:47:42.631Z,79.92
2019-03-23T22:52:44.923Z,80.39
2019-03-23T22:57:47.725Z,80.20
2019-03-23T23:02:50.070Z,80.30
2019-03-23T23:07:52.700Z,80.61
2019-03-23T23:12:55.348Z,80.35
2019-03-23T23:18:00.719Z,80.35
2019-03-23T23:23:02.988Z,80.26
2019-03-23T23:28:05.888Z,80.80
2019-03-23T23:33:08.543Z,81.17
2019-03-23T23:38:11.964Z,80.56
2019-03-23T23:43:16.279Z,80.95
2019-03-23T23:48:20.130Z,81.28
2019-03-23T23:53:23.870Z,81.51
2019-03-23T23:58:27.527Z,81.97
